Time;durP1;ratioP1;P1;durP2;ratioP2;P2;SDS_P1;SDS_P2;PMS_P1;PMS_P2;Temp;Humidity;BMP_temperature;BMP_pressure;BME280_temperature;BME280_humidity;BME280_pressure;Samples;Min_cycle;Max_cycle;Signal;HPM_P1;HPM_P2
2022/07/18 00:01:49;;;;;;;6.50;6.20;;;;;;;-143.83;100.00;62900.06;5109375;28;20023;-61
2022/07/18 00:04:14;;;;;;;6.45;6.15;;;;;;;-143.83;100.00;62900.06;5112190;28;20509;-62
2022/07/18 00:06:40;;;;;;;6.07;5.88;;;;;;;-143.83;100.00;62900.06;5111350;28;20386;-62
2022/07/18 00:09:05;;;;;;;6.32;6.03;;;;;;;-143.83;100.00;62900.06;5100971;28;20129;-63
2022/07/18 00:11:31;;;;;;;6.57;6.28;;;;;;;-143.83;100.00;62900.06;5112240;28;20028;-62
2022/07/18 00:13:56;;;;;;;6.32;6.03;;;;;;;-143.83;100.00;62900.06;5111892;28;20447;-63
2022/07/18 00:16:25;;;;;;;6.40;6.10;;;;;;;-143.83;100.00;62900.06;5105949;28;20012;-61
2022/07/18 00:18:51;;;;;;;6.43;6.13;;;;;;;-143.83;100.00;62900.06;5122686;28;20027;-62
2022/07/18 00:21:17;;;;;;;6.18;5.95;;;;;;;-143.83;100.00;62900.06;5112208;28;20030;-62
2022/07/18 00:23:42;;;;;;;6.50;6.20;;;;;;;-143.83;100.00;62900.06;5111741;28;20046;-62
2022/07/18 00:26:08;;;;;;;6.40;6.10;;;;;;;-143.83;100.00;62900.06;5102032;28;20032;-62
2022/07/18 00:28:33;;;;;;;6.70;6.40;;;;;;;-143.83;100.00;62900.06;5116761;28;20030;-62
2022/07/18 00:30:59;;;;;;;6.50;6.20;;;;;;;-143.83;100.00;62900.06;5122497;28;20035;-62
2022/07/18 00:33:24;;;;;;;6.25;6.00;;;;;;;-143.83;100.00;62900.06;5111867;28;20383;-62
2022/07/18 00:35:50;;;;;;;6.70;6.40;;;;;;;-143.83;100.00;62900.06;5111907;28;20015;-62
2022/07/18 00:38:16;;;;;;;6.50;6.20;;;;;;;-143.83;100.00;62900.06;5111873;28;20023;-62
2022/07/18 00:40:41;;;;;;;6.38;6.07;;;;;;;-143.83;100.00;62900.06;5110479;28;20051;-62
2022/07/18 00:43:07;;;;;;;6.40;6.10;;;;;;;-143.83;100.00;62900.06;5102138;28;20089;-61
2022/07/18 00:45:32;;;;;;;6.50;6.20;;;;;;;-143.83;100.00;62900.06;5112449;28;20015;-63
2022/07/18 00:47:58;;;;;;;6.53;6.22;;;;;;;-143.83;100.00;62900.06;5111494;28;20031;-61
2022/07/18 00:50:24;;;;;;;6.53;6.22;;;;;;;-143.83;100.00;62900.06;5111781;28;20027;-62
2022/07/18 00:52:50;;;;;;;6.50;6.20;;;;;;;-143.83;100.00;62900.06;5111944;28;20055;-62
2022/07/18 00:55:16;;;;;;;6.35;6.05;;;;;;;-143.83;100.00;62900.06;5114092;28;20015;-61
2022/07/18 00:57:44;;;;;;;6.20;6.00;;;;;;;-143.83;100.00;62900.06;5115454;28;20072;-61
2022/07/18 01:02:58;;;;;;;6.30;6.00;;;;;;;-143.83;100.00;62900.06;5105014;28;20123;-63
2022/07/18 01:05:23;;;;;;;6.40;6.10;;;;;;;-143.83;100.00;62900.06;5121820;27;20356;-62
2022/07/18 01:07:51;;;;;;;6.78;6.47;;;;;;;-143.83;100.00;62900.06;5115120;28;20030;-62
2022/07/18 01:10:18;;;;;;;6.45;6.15;;;;;;;-143.83;100.00;62900.06;5115081;28;20028;-62
2022/07/18 01:12:46;;;;;;;6.47;6.18;;;;;;;-143.83;100.00;62900.06;5114185;28;20034;-62
2022/07/18 01:15:13;;;;;;;6.55;6.25;;;;;;;-143.83;100.00;62900.06;5125468;27;20015;-62
2022/07/18 01:17:39;;;;;;;6.65;6.35;;;;;;;-143.83;100.00;62900.06;5115328;27;20027;-62
2022/07/18 01:20:06;;;;;;;6.45;6.15;;;;;;;-143.83;100.00;62900.06;5114842;28;20034;-61
2022/07/18 01:22:32;;;;;;;6.28;6.03;;;;;;;-143.83;100.00;62900.06;5114884;28;20026;-62
2022/07/18 01:24:58;;;;;;;6.40;6.10;;;;;;;-143.83;100.00;62900.06;5115011;28;20031;-62
2022/07/18 01:27:23;;;;;;;6.72;6.43;;;;;;;-143.83;100.00;62900.06;5112538;28;21079;-61
2022/07/18 01:29:51;;;;;;;6.40;6.10;;;;;;;-143.83;100.00;62900.06;5109488;28;20039;-62
2022/07/18 01:32:17;;;;;;;6.40;6.10;;;;;;;-143.83;100.00;62900.06;5114258;28;20033;-63
2022/07/18 01:34:45;;;;;;;6.40;6.10;;;;;;;-143.83;100.00;62900.06;5113806;27;20673;-63
2022/07/18 01:37:11;;;;;;;6.60;6.30;;;;;;;-143.83;100.00;62900.06;5113895;28;20024;-62
2022/07/18 01:39:37;;;;;;;6.30;6.00;;;;;;;-143.83;100.00;62900.06;5113223;28;20485;-62
2022/07/18 01:42:06;;;;;;;6.75;6.45;;;;;;;-143.83;100.00;62900.06;5114714;28;20503;-63
2022/07/18 01:44:33;;;;;;;6.60;6.30;;;;;;;-143.83;100.00;62900.06;5114299;28;20069;-62
2022/07/18 01:46:59;;;;;;;6.15;5.93;;;;;;;-143.83;100.00;62900.06;5114409;28;20023;-63
2022/07/18 01:49:26;;;;;;;6.55;6.25;;;;;;;-143.83;100.00;62900.06;5114563;28;20023;-63
2022/07/18 01:51:53;;;;;;;6.30;6.00;;;;;;;-143.83;100.00;62900.06;5114370;27;20106;-63
2022/07/18 01:54:21;;;;;;;6.40;6.10;;;;;;;-143.83;100.00;62900.06;5114050;28;20126;-63
2022/07/18 01:56:47;;;;;;;6.40;6.10;;;;;;;-143.83;100.00;62900.06;5106341;28;20085;-62
2022/07/18 01:59:13;;;;;;;6.38;6.07;;;;;;;-143.83;100.00;62900.06;5104220;28;20463;-62
2022/07/18 02:01:38;;;;;;;6.50;6.20;;;;;;;-143.83;100.00;62900.06;5105598;28;20023;-62
2022/07/18 02:04:04;;;;;;;6.38;6.07;;;;;;;-143.83;100.00;62900.06;5104837;28;20400;-62
2022/07/18 02:06:30;;;;;;;6.18;5.97;;;;;;;-143.83;100.00;62900.06;5112775;28;20497;-61
2022/07/18 02:08:56;;;;;;;6.32;6.03;;;;;;;-143.83;100.00;62900.06;5114467;27;20028;-62
2022/07/18 02:11:21;;;;;;;6.47;6.18;;;;;;;-143.83;100.00;62900.06;5119391;27;20136;-62
2022/07/18 02:13:47;;;;;;;6.22;5.97;;;;;;;-143.83;100.00;62900.06;5095562;28;20028;-62
2022/07/18 02:16:13;;;;;;;6.60;6.30;;;;;;;-143.83;100.00;62900.06;5105610;28;20047;-62
2022/07/18 02:18:38;;;;;;;6.40;6.10;;;;;;;-143.83;100.00;62900.06;5127029;27;20467;-62
2022/07/18 02:21:04;;;;;;;6.68;6.38;;;;;;;-143.83;100.00;62900.06;5113038;28;20043;-62
2022/07/18 02:23:29;;;;;;;6.35;6.05;;;;;;;-143.83;100.00;62900.06;5110650;28;20036;-61
2022/07/18 02:25:55;;;;;;;6.60;6.30;;;;;;;-143.83;100.00;62900.06;5114953;27;20454;-62
2022/07/18 02:28:21;;;;;;;6.30;6.00;;;;;;;-143.83;100.00;62900.06;5117357;27;20032;-63
2022/07/18 02:30:50;;;;;;;6.32;6.05;;;;;;;-143.83;100.00;62900.06;5104764;28;20479;-61
2022/07/18 02:33:17;;;;;;;6.50;6.20;;;;;;;-143.83;100.00;62900.06;5094088;28;20043;-62
2022/07/18 02:35:43;;;;;;;6.60;6.30;;;;;;;-143.83;100.00;62900.06;5113332;28;20055;-63
2022/07/18 02:38:09;;;;;;;6.47;6.18;;;;;;;-143.83;100.00;62900.06;5111730;28;20015;-63
2022/07/18 02:40:35;;;;;;;6.93;6.63;;;;;;;-143.83;100.00;62900.06;5110942;28;20410;-63
2022/07/18 02:43:01;;;;;;;7.03;6.72;;;;;;;-143.83;100.00;62900.06;5112261;27;20110;-62
2022/07/18 02:45:26;;;;;;;6.50;6.20;;;;;;;-143.83;100.00;62900.06;5113080;28;20023;-62
2022/07/18 02:47:53;;;;;;;6.70;6.40;;;;;;;-143.83;100.00;62900.06;5107359;28;20032;-62
2022/07/18 02:50:19;;;;;;;6.30;6.00;;;;;;;-143.83;100.00;62900.06;5105782;28;20027;-62
2022/07/18 02:52:45;;;;;;;6.43;6.13;;;;;;;-143.83;100.00;62900.06;5113007;28;20383;-63
2022/07/18 02:55:12;;;;;;;6.43;6.13;;;;;;;-143.83;100.00;62900.06;5112852;28;20437;-62
2022/07/18 02:57:38;;;;;;;6.55;6.25;;;;;;;-143.83;100.00;62900.06;5097909;28;20034;-62
2022/07/18 03:00:07;;;;;;;6.05;5.85;;;;;;;-143.83;100.00;62900.06;5113443;27;20019;-62
2022/07/18 03:02:33;;;;;;;6.35;6.05;;;;;;;-143.83;100.00;62900.06;5112883;28;20027;-62
2022/07/18 03:04:58;;;;;;;6.60;6.30;;;;;;;-143.83;100.00;62900.06;5096054;28;20016;-63
2022/07/18 03:07:24;;;;;;;6.40;6.10;;;;;;;-143.83;100.00;62900.06;5127944;27;20027;-62
2022/07/18 03:09:50;;;;;;;6.70;6.40;;;;;;;-143.83;100.00;62900.06;5112540;27;20023;-62
2022/07/18 03:12:17;;;;;;;6.13;5.93;;;;;;;-143.83;100.00;62900.06;5112801;28;20030;-63
2022/07/18 03:14:42;;;;;;;6.63;6.32;;;;;;;-143.83;100.00;62900.06;5097568;28;20479;-63
2022/07/18 03:17:08;;;;;;;6.82;6.53;;;;;;;-143.83;100.00;62900.06;5113497;27;20080;-63
2022/07/18 03:19:34;;;;;;;6.80;6.50;;;;;;;-143.83;100.00;62900.06;5112418;28;20024;-62
2022/07/18 03:22:00;;;;;;;6.60;6.30;;;;;;;-143.83;100.00;62900.06;5112911;28;20160;-61
2022/07/18 03:24:25;;;;;;;6.78;6.47;;;;;;;-143.83;100.00;62900.06;5112367;28;20053;-62
2022/07/18 03:26:51;;;;;;;6.90;6.60;;;;;;;-143.83;100.00;62900.06;5111150;28;20027;-62
2022/07/18 03:29:17;;;;;;;6.43;6.13;;;;;;;-143.83;100.00;62900.06;5100556;28;20386;-63
2022/07/18 03:31:42;;;;;;;7.10;6.80;;;;;;;-143.83;100.00;62900.06;5110572;28;20467;-63
2022/07/18 03:34:08;;;;;;;6.72;6.43;;;;;;;-143.83;100.00;62900.06;5105284;27;20032;-62
2022/07/18 03:36:34;;;;;;;6.97;6.68;;;;;;;-143.83;100.00;62900.06;5112782;28;20019;-63
2022/07/18 03:38:59;;;;;;;6.57;6.28;;;;;;;-143.83;100.00;62900.06;5116706;27;20102;-63
2022/07/18 03:41:25;;;;;;;6.80;6.50;;;;;;;-143.83;100.00;62900.06;5121523;27;20144;-63
2022/07/18 03:43:50;;;;;;;6.90;6.60;;;;;;;-143.83;100.00;62900.06;5104970;28;20394;-62
2022/07/18 03:46:16;;;;;;;6.90;6.60;;;;;;;-143.83;100.00;62900.06;5112486;28;20072;-63
2022/07/18 03:48:42;;;;;;;7.00;6.70;;;;;;;-143.83;100.00;62900.06;5112138;28;20479;-63
2022/07/18 03:51:07;;;;;;;7.05;6.75;;;;;;;-143.83;100.00;62900.06;5108388;28;20039;-63
2022/07/18 03:53:33;;;;;;;7.20;6.90;;;;;;;-143.83;100.00;62900.06;5112288;28;20084;-63
2022/07/18 03:55:58;;;;;;;7.00;6.70;;;;;;;-143.83;100.00;62900.06;5107941;28;20131;-63
2022/07/18 03:58:24;;;;;;;7.20;6.90;;;;;;;-143.83;100.00;62900.06;5099975;28;20020;-62
2022/07/18 04:00:50;;;;;;;7.20;6.90;;;;;;;-143.83;100.00;62900.06;5101689;28;20119;-63
2022/07/18 04:03:16;;;;;;;7.05;6.75;;;;;;;-143.83;100.00;62900.06;5107074;28;20035;-62
2022/07/18 04:05:41;;;;;;;6.95;6.65;;;;;;;-143.83;100.00;62900.06;5110192;28;20024;-64
2022/07/18 04:08:07;;;;;;;7.53;7.22;;;;;;;-143.83;100.00;62900.06;5105681;28;20024;-66
2022/07/18 04:10:33;;;;;;;7.50;7.20;;;;;;;-143.83;100.00;62900.06;5107166;28;20027;-65
2022/07/18 04:12:58;;;;;;;7.40;7.10;;;;;;;-143.83;100.00;62900.06;5099981;28;20035;-65
2022/07/18 04:15:25;;;;;;;7.10;6.80;;;;;;;-143.83;100.00;62900.06;5111193;28;20537;-64
2022/07/18 04:17:51;;;;;;;7.18;6.88;;;;;;;-143.83;100.00;62900.06;5120065;28;20467;-65
2022/07/18 04:20:19;;;;;;;7.30;7.00;;;;;;;-143.83;100.00;62900.06;5122440;27;20027;-64
2022/07/18 04:22:48;;;;;;;7.20;6.90;;;;;;;-143.83;100.00;62900.06;5114481;27;20268;-65
2022/07/18 04:25:14;;;;;;;7.28;6.97;;;;;;;-143.83;100.00;62900.06;5107650;28;20345;-64
2022/07/18 04:27:40;;;;;;;7.15;6.85;;;;;;;-143.83;100.00;62900.06;5101282;28;20541;-65
2022/07/18 04:30:07;;;;;;;7.18;6.88;;;;;;;-143.83;100.00;62900.06;5119667;27;20035;-65
2022/07/18 04:32:32;;;;;;;7.10;6.80;;;;;;;-143.83;100.00;62900.06;5111970;27;20026;-65
2022/07/18 04:34:58;;;;;;;7.07;6.78;;;;;;;-143.83;100.00;62900.06;5116448;27;20023;-65
2022/07/18 04:37:23;;;;;;;7.28;6.97;;;;;;;-143.83;100.00;62900.06;5121206;27;20035;-65
2022/07/18 04:39:48;;;;;;;7.18;6.88;;;;;;;-143.83;100.00;62900.06;5117347;27;20630;-65
2022/07/18 04:42:14;;;;;;;7.10;6.80;;;;;;;-143.83;100.00;62900.06;5110533;28;20255;-65
2022/07/18 04:44:39;;;;;;;7.13;6.82;;;;;;;-143.83;100.00;62900.06;5112939;27;20047;-65
2022/07/18 04:47:05;;;;;;;7.50;7.20;;;;;;;-143.83;100.00;62900.06;5117468;27;20044;-66
2022/07/18 04:49:31;;;;;;;7.40;7.10;;;;;;;-143.83;100.00;62900.06;5114365;27;20416;-65
2022/07/18 04:51:56;;;;;;;7.40;7.10;;;;;;;-143.83;100.00;62900.06;5113469;27;20031;-66
2022/07/18 04:54:21;;;;;;;7.25;6.95;;;;;;;-143.83;100.00;62900.06;5114917;28;20454;-66
2022/07/18 04:56:47;;;;;;;7.13;6.82;;;;;;;-143.83;100.00;62900.06;5107143;28;20023;-65
2022/07/18 04:59:13;;;;;;;7.18;6.88;;;;;;;-143.83;100.00;62900.06;5104625;27;20028;-64
2022/07/18 05:01:38;;;;;;;7.50;7.20;;;;;;;-143.83;100.00;62900.06;5114282;28;20024;-65
2022/07/18 05:04:04;;;;;;;7.40;7.10;;;;;;;-143.83;100.00;62900.06;5111772;27;20104;-66
2022/07/18 05:06:29;;;;;;;7.30;7.00;;;;;;;-143.83;100.00;62900.06;5107851;27;20028;-65
2022/07/18 05:08:55;;;;;;;7.00;6.70;;;;;;;-143.83;100.00;62900.06;5108991;28;20435;-65
2022/07/18 05:11:20;;;;;;;7.32;7.03;;;;;;;-143.83;100.00;62900.06;5111340;28;20539;-64
2022/07/18 05:13:46;;;;;;;7.30;7.00;;;;;;;-143.83;100.00;62900.06;5114722;28;20030;-64
2022/07/18 05:16:11;;;;;;;7.40;7.10;;;;;;;-143.83;100.00;62900.06;5111069;27;20103;-64
2022/07/18 05:18:37;;;;;;;7.07;6.78;;;;;;;-143.83;100.00;62900.06;5114538;28;20506;-64
2022/07/18 05:21:02;;;;;;;7.38;7.07;;;;;;;-143.83;100.00;62900.06;5112729;28;20038;-64
2022/07/18 05:23:28;;;;;;;7.50;7.20;;;;;;;-143.83;100.00;62900.06;5108367;28;20028;-66
2022/07/18 05:25:53;;;;;;;7.50;7.20;;;;;;;-143.83;100.00;62900.06;5107797;27;20034;-65
2022/07/18 05:28:19;;;;;;;7.15;6.85;;;;;;;-143.83;100.00;62900.06;5121381;27;20483;-65
2022/07/18 05:30:44;;;;;;;7.30;7.00;;;;;;;-143.83;100.00;62900.06;5118266;27;20566;-65
2022/07/18 05:33:10;;;;;;;7.20;6.90;;;;;;;-143.83;100.00;62900.06;5115234;27;20031;-64
2022/07/18 05:35:35;;;;;;;7.22;6.93;;;;;;;-143.83;100.00;62900.06;5127935;27;20031;-66
2022/07/18 05:38:01;;;;;;;7.03;6.72;;;;;;;-143.83;100.00;62900.06;5104989;27;20030;-65
2022/07/18 05:40:27;;;;;;;7.03;6.72;;;;;;;-143.83;100.00;62900.06;5113559;28;20043;-66
2022/07/18 05:42:52;;;;;;;7.32;7.03;;;;;;;-143.83;100.00;62900.06;5117963;27;20410;-65
2022/07/18 05:45:18;;;;;;;7.25;6.95;;;;;;;-143.83;100.00;62900.06;5112151;28;20019;-66
2022/07/18 05:47:43;;;;;;;7.30;7.00;;;;;;;-143.83;100.00;62900.06;5118712;27;20019;-65
2022/07/18 05:50:09;;;;;;;7.15;6.85;;;;;;;-143.83;100.00;62900.06;5116445;27;20499;-64
2022/07/18 05:52:35;;;;;;;7.40;7.10;;;;;;;-143.83;100.00;62900.06;5113584;27;20038;-64
2022/07/18 05:55:01;;;;;;;7.40;7.10;;;;;;;-143.83;100.00;62900.06;5103956;27;20051;-64
2022/07/18 05:57:26;;;;;;;7.35;7.05;;;;;;;-143.83;100.00;62900.06;5109114;28;20096;-65
2022/07/18 05:59:52;;;;;;;7.22;6.93;;;;;;;-143.83;100.00;62900.06;5109607;27;20055;-65
2022/07/18 06:02:17;;;;;;;7.20;6.90;;;;;;;-143.83;100.00;62900.06;5116084;27;20023;-64
2022/07/18 06:04:43;;;;;;;7.30;7.00;;;;;;;-143.83;100.00;62900.06;5113721;28;20038;-64
2022/07/18 06:07:08;;;;;;;7.22;6.93;;;;;;;-143.83;100.00;62900.06;5111724;27;20102;-64
2022/07/18 06:09:34;;;;;;;7.13;6.82;;;;;;;-143.83;100.00;62900.06;5106108;28;20032;-64
2022/07/18 06:12:01;;;;;;;7.40;7.10;;;;;;;-143.83;100.00;62900.06;5111033;28;20028;-65
2022/07/18 06:14:31;;;;;;;7.13;6.82;;;;;;;-143.83;100.00;62900.06;5113094;28;20027;-64
2022/07/18 06:16:57;;;;;;;7.40;7.10;;;;;;;-143.83;100.00;62900.06;5102691;27;20016;-65
2022/07/18 06:19:23;;;;;;;7.35;7.05;;;;;;;-143.83;100.00;62900.06;5099305;28;20028;-63
2022/07/18 06:21:48;;;;;;;7.05;6.75;;;;;;;-143.83;100.00;62900.06;5109301;28;20100;-64
2022/07/18 06:24:14;;;;;;;7.25;6.95;;;;;;;-143.83;100.00;62900.06;5106304;27;20016;-63
2022/07/18 06:26:39;;;;;;;7.30;7.00;;;;;;;-143.83;100.00;62900.06;5099571;27;20038;-63
2022/07/18 06:29:05;;;;;;;7.18;6.88;;;;;;;-143.83;100.00;62900.06;5097291;27;20393;-63
2022/07/18 06:31:31;;;;;;;7.07;6.78;;;;;;;-143.83;100.00;62900.06;5096314;27;20024;-63
2022/07/18 06:33:56;;;;;;;7.20;6.90;;;;;;;-143.83;100.00;62900.06;5100460;27;20073;-63
2022/07/18 06:36:23;;;;;;;7.22;6.93;;;;;;;-143.83;100.00;62900.06;5109908;27;20474;-64
2022/07/18 06:38:52;;;;;;;7.25;6.95;;;;;;;-143.83;100.00;62900.06;5117283;27;20022;-64
2022/07/18 06:41:19;;;;;;;7.03;6.72;;;;;;;-143.83;100.00;62900.06;5111991;27;20506;-64
2022/07/18 06:43:45;;;;;;;7.20;6.90;;;;;;;-143.83;100.00;62900.06;5115519;27;20050;-63
2022/07/18 06:46:11;;;;;;;7.40;7.10;;;;;;;-143.83;100.00;62900.06;5111397;27;20027;-63
2022/07/18 06:48:38;;;;;;;7.10;6.80;;;;;;;-143.83;100.00;62900.06;5115812;27;20138;-64
2022/07/18 06:51:05;;;;;;;7.15;6.85;;;;;;;-143.83;100.00;62900.06;5114499;27;20110;-63
2022/07/18 06:53:31;;;;;;;7.00;6.70;;;;;;;-143.83;100.00;62900.06;5105920;27;20019;-63
2022/07/18 06:55:57;;;;;;;7.22;6.93;;;;;;;-143.83;100.00;62900.06;5106058;27;20035;-64
2022/07/18 06:58:23;;;;;;;7.20;6.90;;;;;;;-143.83;100.00;62900.06;5113346;27;20377;-62
2022/07/18 07:00:50;;;;;;;7.20;6.90;;;;;;;-143.83;100.00;62900.06;5115837;27;20027;-63
2022/07/18 07:03:16;;;;;;;7.00;6.70;;;;;;;-143.83;100.00;62900.06;5106617;28;20026;-64
2022/07/18 07:05:41;;;;;;;7.25;6.95;;;;;;;-143.83;100.00;62900.06;5114989;27;20098;-62
2022/07/18 07:08:07;;;;;;;7.20;6.90;;;;;;;-143.83;100.00;62900.06;5111020;27;20015;-62
2022/07/18 07:10:32;;;;;;;7.35;7.05;;;;;;;-143.83;100.00;62900.06;5106344;27;20023;-63
2022/07/18 07:12:58;;;;;;;7.47;7.18;;;;;;;-143.83;100.00;62900.06;5102269;27;20077;-63
2022/07/18 07:15:23;;;;;;;7.28;6.97;;;;;;;-143.83;100.00;62900.06;5104347;27;20019;-62
2022/07/18 07:17:50;;;;;;;7.45;7.15;;;;;;;-143.83;100.00;62900.06;5105328;27;20024;-63
2022/07/18 07:20:19;;;;;;;7.40;7.10;;;;;;;-143.83;100.00;62900.06;5108008;27;20037;-62
2022/07/18 07:22:46;;;;;;;7.30;7.00;;;;;;;-143.83;100.00;62900.06;5101734;27;20023;-64
2022/07/18 07:25:13;;;;;;;7.40;7.10;;;;;;;-143.83;100.00;62900.06;5107772;28;20062;-64
2022/07/18 07:27:40;;;;;;;7.20;6.90;;;;;;;-143.83;100.00;62900.06;5102852;28;20312;-64
2022/07/18 07:30:06;;;;;;;7.05;6.75;;;;;;;-143.83;100.00;62900.06;5104821;28;20031;-62
2022/07/18 07:32:39;;;;;;;7.03;6.72;;;;;;;-143.83;100.00;62900.06;5117690;27;20062;-62
2022/07/18 07:35:06;;;;;;;7.38;7.07;;;;;;;-143.83;100.00;62900.06;5106372;28;20105;-64
2022/07/18 07:37:35;;;;;;;7.28;6.97;;;;;;;-143.83;100.00;62900.06;5098814;28;20019;-64
2022/07/18 07:40:01;;;;;;;7.10;6.80;;;;;;;-143.83;100.00;62900.06;5114183;27;20737;-63
2022/07/18 07:42:26;;;;;;;7.40;7.10;;;;;;;-143.83;100.00;62900.06;5112047;27;20032;-63
2022/07/18 07:44:52;;;;;;;7.15;6.85;;;;;;;-143.83;100.00;62900.06;5104735;27;20026;-63
2022/07/18 07:47:17;;;;;;;7.20;6.90;;;;;;;-143.83;100.00;62900.06;5100933;27;20398;-63
2022/07/18 07:49:43;;;;;;;7.30;7.00;;;;;;;-143.83;100.00;62900.06;5110042;27;20019;-63
2022/07/18 07:52:08;;;;;;;7.20;6.90;;;;;;;-143.83;100.00;62900.06;5103666;28;20059;-63
2022/07/18 07:54:34;;;;;;;7.07;6.78;;;;;;;-143.83;100.00;62900.06;5104630;28;20027;-65
2022/07/18 07:57:00;;;;;;;7.30;7.00;;;;;;;-143.83;100.00;62900.06;5105400;28;20059;-64
2022/07/18 07:59:25;;;;;;;7.60;7.30;;;;;;;-143.83;100.00;62900.06;5100407;28;20086;-63
2022/07/18 08:01:51;;;;;;;7.80;7.50;;;;;;;-143.83;100.00;62900.06;5098005;28;20068;-62
2022/07/18 08:04:16;;;;;;;7.32;7.03;;;;;;;-143.83;100.00;62900.06;5106535;27;20053;-69
2022/07/18 08:06:42;;;;;;;7.00;6.70;;;;;;;-143.83;100.00;62900.06;5104277;27;20027;-63
2022/07/18 08:09:08;;;;;;;6.80;6.50;;;;;;;-143.83;100.00;62900.06;5115774;28;20110;-64
2022/07/18 08:11:33;;;;;;;7.10;6.80;;;;;;;-143.83;100.00;62900.06;5115493;28;20020;-63
2022/07/18 08:13:59;;;;;;;7.00;6.70;;;;;;;-143.83;100.00;62900.06;5115234;28;20760;-63
2022/07/18 08:16:25;;;;;;;7.03;6.72;;;;;;;-143.83;100.00;62900.06;5115034;28;20257;-63
2022/07/18 08:18:50;;;;;;;6.78;6.47;;;;;;;-143.83;100.00;62900.06;5106588;28;20020;-63
2022/07/18 08:21:16;;;;;;;7.00;6.70;;;;;;;-143.83;100.00;62900.06;5115329;28;20088;-64
2022/07/18 08:23:43;;;;;;;7.20;6.90;;;;;;;-143.83;100.00;62900.06;5125643;27;20031;-63
2022/07/18 08:26:08;;;;;;;6.90;6.60;;;;;;;-143.83;100.00;62900.06;5107571;27;20028;-63
2022/07/18 08:28:34;;;;;;;7.07;6.78;;;;;;;-143.83;100.00;62900.06;5113295;28;20043;-63
2022/07/18 08:30:59;;;;;;;6.70;6.40;;;;;;;-143.83;100.00;62900.06;5115510;28;20038;-63
2022/07/18 08:33:25;;;;;;;7.00;6.70;;;;;;;-143.83;100.00;62900.06;5115313;28;20027;-63
2022/07/18 08:35:50;;;;;;;7.00;6.70;;;;;;;-143.83;100.00;62900.06;5115441;28;20024;-64
2022/07/18 08:38:16;;;;;;;6.90;6.60;;;;;;;-143.83;100.00;62900.06;5111077;28;20042;-64
2022/07/18 08:40:41;;;;;;;7.00;6.70;;;;;;;-143.83;100.00;62900.06;5105031;28;20051;-64
2022/07/18 08:43:07;;;;;;;6.80;6.50;;;;;;;-143.83;100.00;62900.06;5118871;27;20053;-64
2022/07/18 08:45:33;;;;;;;7.10;6.80;;;;;;;-143.83;100.00;62900.06;5115437;28;20447;-63
2022/07/18 08:47:59;;;;;;;7.15;6.85;;;;;;;-143.83;100.00;62900.06;5115621;28;20035;-63
2022/07/18 08:50:26;;;;;;;7.40;7.10;;;;;;;-143.83;100.00;62900.06;5114247;28;20031;-63
2022/07/18 08:52:52;;;;;;;7.30;7.00;;;;;;;-143.83;100.00;62900.06;5113862;28;20027;-63
2022/07/18 08:55:17;;;;;;;7.20;6.90;;;;;;;-143.83;100.00;62900.06;5112871;27;20019;-63
2022/07/18 08:57:43;;;;;;;7.20;6.90;;;;;;;-143.83;100.00;62900.06;5104207;28;20050;-62
2022/07/18 09:00:10;;;;;;;7.25;6.95;;;;;;;-143.83;100.00;62900.06;5129217;27;20095;-63
2022/07/18 09:02:35;;;;;;;7.00;6.70;;;;;;;-143.83;100.00;62900.06;5115148;28;20394;-63
2022/07/18 09:05:03;;;;;;;7.15;6.85;;;;;;;-143.83;100.00;62900.06;5114888;28;20020;-63
2022/07/18 09:07:31;;;;;;;6.80;6.50;;;;;;;-143.83;100.00;62900.06;5115121;28;20028;-63
2022/07/18 09:09:59;;;;;;;6.80;6.50;;;;;;;-143.83;100.00;62900.06;5114992;27;20030;-63
2022/07/18 09:12:26;;;;;;;6.80;6.50;;;;;;;-143.83;100.00;62900.06;5113893;28;20055;-63
2022/07/18 09:14:54;;;;;;;6.95;6.65;;;;;;;-143.83;100.00;62900.06;5113810;28;20074;-63
2022/07/18 09:17:28;;;;;;;6.85;6.55;;;;;;;-143.83;100.00;62900.06;5114470;28;20120;-63
2022/07/18 09:20:11;;;;;;;7.00;6.70;;;;;;;-143.83;100.00;62900.06;5114509;28;20073;-63
2022/07/18 09:22:38;;;;;;;6.93;6.63;;;;;;;-143.83;100.00;62900.06;5114443;28;20486;-63
2022/07/18 09:25:07;;;;;;;6.90;6.60;;;;;;;-143.83;100.00;62900.06;5114628;28;20031;-64
2022/07/18 09:27:41;;;;;;;7.10;6.80;;;;;;;-143.83;100.00;62900.06;5114489;28;20028;-64
2022/07/18 09:30:08;;;;;;;7.03;6.72;;;;;;;-143.83;100.00;62900.06;5114344;28;20035;-63
2022/07/18 09:32:34;;;;;;;6.93;6.63;;;;;;;-143.83;100.00;62900.06;5114245;28;20031;-63
2022/07/18 09:35:07;;;;;;;7.05;6.75;;;;;;;-143.83;100.00;62900.06;5114517;28;20031;-63
2022/07/18 09:37:33;;;;;;;6.80;6.50;;;;;;;-143.83;100.00;62900.06;5114747;28;20186;-63
2022/07/18 09:40:15;;;;;;;6.90;6.60;;;;;;;-143.83;100.00;62900.06;5119195;27;20110;-62
2022/07/18 09:42:41;;;;;;;6.80;6.50;;;;;;;-143.83;100.00;62900.06;5115680;27;20027;-63
2022/07/18 09:45:07;;;;;;;6.85;6.55;;;;;;;-143.83;100.00;62900.06;5114458;28;20024;-63
2022/07/18 09:47:58;;;;;;;6.70;6.40;;;;;;;-143.83;100.00;62900.06;5113511;28;20506;-63
2022/07/18 09:50:43;;;;;;;6.65;6.35;;;;;;;-143.83;100.00;62900.06;5113904;28;20513;-63
2022/07/18 09:53:14;;;;;;;6.85;6.55;;;;;;;-143.83;100.00;62900.06;5117553;27;20031;-63
2022/07/18 09:55:48;;;;;;;6.90;6.60;;;;;;;-143.83;100.00;62900.06;5116980;27;20015;-62
2022/07/18 09:58:16;;;;;;;6.90;6.60;;;;;;;-143.83;100.00;62900.06;5114140;28;20475;-64
2022/07/18 10:00:42;;;;;;;6.78;6.47;;;;;;;-143.83;100.00;62900.06;5114015;28;20031;-63
2022/07/18 10:03:08;;;;;;;6.95;6.65;;;;;;;-143.83;100.00;62900.06;5112327;28;20035;-63
2022/07/18 10:05:36;;;;;;;6.97;6.68;;;;;;;-143.83;100.00;62900.06;5106283;28;20440;-63
2022/07/18 10:08:05;;;;;;;6.80;6.50;;;;;;;-143.83;100.00;62900.06;5113932;28;20024;-64
2022/07/18 10:10:31;;;;;;;6.85;6.55;;;;;;;-143.83;100.00;62900.06;5112335;28;20023;-63
2022/07/18 10:12:59;;;;;;;6.80;6.50;;;;;;;-143.83;100.00;62900.06;5113817;28;20069;-63
2022/07/18 10:15:28;;;;;;;6.90;6.60;;;;;;;-143.83;100.00;62900.06;5113613;28;20026;-64
2022/07/18 10:17:55;;;;;;;6.80;6.50;;;;;;;-143.83;100.00;62900.06;5101665;28;20081;-64
2022/07/18 10:20:31;;;;;;;6.80;6.50;;;;;;;-143.83;100.00;62900.06;5113527;28;20032;-63
2022/07/18 10:23:02;;;;;;;6.75;6.45;;;;;;;-143.83;100.00;62900.06;5108819;28;20085;-64
2022/07/18 10:25:27;;;;;;;6.60;6.30;;;;;;;-143.83;100.00;62900.06;5113364;28;20019;-63
2022/07/18 10:28:14;;;;;;;7.07;6.78;;;;;;;-143.83;100.00;62900.06;5112547;28;20100;-63
2022/07/18 10:30:44;;;;;;;6.72;6.43;;;;;;;-143.83;100.00;62900.06;5108552;28;20027;-64
2022/07/18 10:33:48;;;;;;;6.97;6.68;;;;;;;-143.83;100.00;62900.06;5113575;28;20096;-64
2022/07/18 10:36:15;;;;;;;7.10;6.80;;;;;;;-143.83;100.00;62900.06;5106969;28;20016;-63
2022/07/18 10:39:02;;;;;;;7.00;6.70;;;;;;;-143.83;100.00;62900.06;5100398;28;20399;-63
2022/07/18 10:41:28;;;;;;;6.70;6.40;;;;;;;-143.83;100.00;62900.06;5113050;28;20050;-65
2022/07/18 10:43:53;;;;;;;6.90;6.60;;;;;;;-143.83;100.00;62900.06;5113110;28;20024;-64
2022/07/18 10:46:19;;;;;;;6.88;6.57;;;;;;;-143.83;100.00;62900.06;5111786;28;20020;-63
2022/07/18 10:48:52;;;;;;;6.72;6.43;;;;;;;-143.83;100.00;62900.06;5113337;28;20027;-64
2022/07/18 10:51:19;;;;;;;6.35;6.07;;;;;;;-143.83;100.00;62900.06;5113329;28;20028;-63
2022/07/18 10:53:53;;;;;;;6.80;6.50;;;;;;;-143.83;100.00;62900.06;5113175;28;20027;-63
2022/07/18 10:56:28;;;;;;;6.75;6.45;;;;;;;-143.83;100.00;62900.06;5111520;28;20024;-64
2022/07/18 10:58:57;;;;;;;6.80;6.50;;;;;;;-143.83;100.00;62900.06;5112846;28;20026;-64
2022/07/18 11:01:25;;;;;;;6.90;6.60;;;;;;;-143.83;100.00;62900.06;5111606;28;20024;-64
2022/07/18 11:04:25;;;;;;;6.90;6.60;;;;;;;-143.83;100.00;62900.06;5112616;28;20053;-63
2022/07/18 11:07:04;;;;;;;6.65;6.35;;;;;;;-143.83;100.00;62900.06;5103994;28;20387;-63
2022/07/18 11:09:43;;;;;;;6.78;6.47;;;;;;;-143.83;100.00;62900.06;5112583;28;20061;-63
2022/07/18 11:12:19;;;;;;;6.90;6.60;;;;;;;-143.83;100.00;62900.06;5102673;28;20051;-64